createdAt,value
2019-05-05T00:01:40.308Z,98447.03
2019-05-05T00:04:19.932Z,98450.15
2019-05-05T00:06:49.317Z,98443.51
2019-05-05T00:09:18.727Z,98444.35
2019-05-05T00:11:49.764Z,98443.88
2019-05-05T00:14:24.628Z,98439.84
2019-05-05T00:17:05.320Z,98452.69
2019-05-05T00:19:35.839Z,98445.31
2019-05-05T00:22:05.443Z,98446.55
2019-05-05T00:24:35.161Z,98449.58
2019-05-05T00:27:04.605Z,98451.70
2019-05-05T00:29:34.693Z,98449.10
2019-05-05T00:32:04.938Z,98455.03
2019-05-05T00:34:35.084Z,98459.72
2019-05-05T00:37:04.854Z,98454.88
2019-05-05T00:39:34.577Z,98457.02
2019-05-05T00:42:05.548Z,98459.58
2019-05-05T00:44:35.306Z,98467.83
2019-05-05T00:47:06.500Z,98466.06
2019-05-05T00:49:46.544Z,98464.77
2019-05-05T00:52:08.638Z,98470.48
2019-05-05T00:54:38.049Z,98469.75
2019-05-05T00:57:07.429Z,98474.95
2019-05-05T00:59:36.847Z,98471.73
2019-05-05T01:02:26.464Z,98473.44
2019-05-05T01:05:00.590Z,98470.42
2019-05-05T01:07:30.392Z,98477.71
2019-05-05T01:09:59.791Z,98478.23
2019-05-05T01:12:29.293Z,98476.98
2019-05-05T01:14:58.707Z,98485.20
2019-05-05T01:17:28.096Z,98483.84
2019-05-05T01:20:03.447Z,98487.27
2019-05-05T01:22:29.057Z,98494.55
2019-05-05T01:24:58.461Z,98497.86
2019-05-05T01:27:27.875Z,98497.81
2019-05-05T01:29:57.278Z,98499.11
2019-05-05T01:32:28.309Z,98508.72
2019-05-05T01:34:57.715Z,98504.77
2019-05-05T01:37:28.747Z,98506.86
2019-05-05T01:39:59.810Z,98503.89
2019-05-05T01:42:29.374Z,98505.31
2019-05-05T01:44:58.797Z,98511.23
2019-05-05T01:47:28.192Z,98509.34
2019-05-05T01:49:57.604Z,98514.90
2019-05-05T01:52:26.999Z,98514.47
2019-05-05T01:54:56.508Z,98517.43
2019-05-05T01:57:26.176Z,98524.39
2019-05-05T01:59:56.122Z,98518.48
2019-05-05T02:02:25.583Z,98519.67
2019-05-05T02:04:55.479Z,98520.91
2019-05-05T02:07:25.197Z,98520.42
2019-05-05T02:09:55.431Z,98523.38
2019-05-05T02:12:25.073Z,98530.80
2019-05-05T02:14:55.105Z,98531.29
2019-05-05T02:17:24.881Z,98538.24
2019-05-05T02:19:55.083Z,98539.06
2019-05-05T02:22:25.248Z,98532.41
2019-05-05T02:24:55.198Z,98541.12
2019-05-05T02:27:25.331Z,98541.61
2019-05-05T02:29:56.696Z,98555.83
2019-05-05T02:32:27.800Z,98559.38
2019-05-05T02:35:01.672Z,98564.62
2019-05-05T02:37:31.050Z,98562.86
2019-05-05T02:40:04.340Z,98566.80
2019-05-05T02:42:32.027Z,98570.14
2019-05-05T02:45:05.709Z,98569.86
2019-05-05T02:47:56.245Z,98575.05
2019-05-05T02:50:46.655Z,98578.16
2019-05-05T02:53:04.088Z,98579.89
2019-05-05T02:55:34.873Z,98582.00
2019-05-05T02:58:04.575Z,98585.09
2019-05-05T03:00:35.770Z,98594.53
2019-05-05T03:03:07.172Z,98593.99
2019-05-05T03:05:36.928Z,98602.59
2019-05-05T03:08:06.689Z,98600.83
2019-05-05T03:10:36.332Z,98606.42
2019-05-05T03:13:05.921Z,98602.83
2019-05-05T03:15:41.047Z,98603.64
2019-05-05T03:18:10.526Z,98608.36
2019-05-05T03:20:40.099Z,98605.41
2019-05-05T03:23:09.588Z,98610.55
2019-05-05T03:25:39.213Z,98620.98
2019-05-05T03:28:08.699Z,98617.38
2019-05-05T03:30:38.537Z,98622.90
2019-05-05T03:33:07.949Z,98618.73
2019-05-05T03:35:37.617Z,98619.02
2019-05-05T03:38:07.472Z,98622.50
2019-05-05T03:40:38.947Z,98627.69
2019-05-05T03:43:10.357Z,98623.31
2019-05-05T03:45:44.663Z,98621.91
2019-05-05T03:48:14.561Z,98629.67
2019-05-05T03:50:44.610Z,98628.72
2019-05-05T03:53:14.596Z,98631.64
2019-05-05T03:55:44.090Z,98632.40
2019-05-05T03:58:14.655Z,98639.38
2019-05-05T04:01:16.050Z,98644.23
2019-05-05T04:03:45.498Z,98643.19
2019-05-05T04:06:15.132Z,98642.52
2019-05-05T04:08:45.620Z,98642.84
2019-05-05T04:11:15.006Z,98650.64
2019-05-05T04:13:45.057Z,98658.01
2019-05-05T04:16:18.826Z,98654.75
2019-05-05T04:18:49.884Z,98657.33
2019-05-05T04:21:30.325Z,98657.55
2019-05-05T04:23:50.390Z,98657.67
2019-05-05T04:26:19.784Z,98659.95
2019-05-05T04:28:49.199Z,98661.77
2019-05-05T04:31:18.622Z,98660.89
2019-05-05T04:33:48.034Z,98664.09
2019-05-05T04:36:17.434Z,98665.75
2019-05-05T04:38:46.860Z,98669.22
2019-05-05T04:41:16.250Z,98676.59
2019-05-05T04:43:45.666Z,98682.69
2019-05-05T04:46:15.130Z,98689.72
2019-05-05T04:48:48.696Z,98683.28
2019-05-05T04:51:25.792Z,98688.71
2019-05-05T04:53:59.799Z,98685.89
2019-05-05T04:56:30.093Z,98682.88
2019-05-05T04:58:59.644Z,98685.02
2019-05-05T05:01:29.039Z,98686.02
2019-05-05T05:04:06.095Z,98685.83
2019-05-05T05:06:40.287Z,98688.63
2019-05-05T05:09:09.735Z,98683.34
2019-05-05T05:11:39.127Z,98692.34
2019-05-05T05:14:08.587Z,98687.53
2019-05-05T05:16:38.057Z,98683.56
2019-05-05T05:19:07.471Z,98692.20
2019-05-05T05:21:36.869Z,98695.15
2019-05-05T05:24:06.295Z,98702.61
2019-05-05T05:26:35.695Z,98709.08
2019-05-05T05:29:05.181Z,98706.06
2019-05-05T05:31:34.600Z,98705.84
2019-05-05T05:34:04.463Z,98708.13
2019-05-05T05:36:33.968Z,98708.95
2019-05-05T05:39:14.020Z,98710.09
2019-05-05T05:41:45.037Z,98720.22
2019-05-05T05:44:19.372Z,98713.45
2019-05-05T05:46:55.882Z,98715.16
2019-05-05T05:49:26.949Z,98711.41
2019-05-05T05:51:56.354Z,98715.82
2019-05-05T05:54:25.852Z,98724.77
2019-05-05T05:56:55.267Z,98722.23
2019-05-05T05:59:24.812Z,98725.83
2019-05-05T06:02:08.684Z,98726.00
2019-05-05T06:04:25.479Z,98726.53
2019-05-05T06:06:54.884Z,98734.57
2019-05-05T06:09:24.319Z,98729.06
2019-05-05T06:11:54.216Z,98734.93
2019-05-05T06:14:24.717Z,98730.20
2019-05-05T06:16:54.213Z,98737.29
2019-05-05T06:19:24.602Z,98742.63
2019-05-05T06:21:54.401Z,98745.75
2019-05-05T06:24:24.066Z,98744.89
2019-05-05T06:26:54.710Z,98736.63
2019-05-05T06:29:24.154Z,98734.88
2019-05-05T06:31:53.900Z,98733.55
2019-05-05T06:34:24.412Z,98734.83
2019-05-05T06:36:53.935Z,98736.58
2019-05-05T06:39:24.179Z,98735.16
2019-05-05T06:41:55.360Z,98740.38
2019-05-05T06:44:29.092Z,98741.15
2019-05-05T06:47:04.714Z,98739.73
2019-05-05T06:49:34.674Z,98737.11
2019-05-05T06:52:04.397Z,98735.97
2019-05-05T06:54:34.876Z,98735.25
2019-05-05T06:57:04.662Z,98729.88
2019-05-05T06:59:34.986Z,98731.85
2019-05-05T07:02:04.703Z,98740.81
2019-05-05T07:04:34.216Z,98735.98
2019-05-05T07:07:05.198Z,98733.02
2019-05-05T07:09:34.832Z,98733.55
2019-05-05T07:12:04.712Z,98735.69
2019-05-05T07:14:34.262Z,98735.18
2019-05-05T07:17:05.065Z,98738.03
2019-05-05T07:19:34.837Z,98743.47
2019-05-05T07:22:04.332Z,98742.80
2019-05-05T07:24:34.496Z,98753.48
2019-05-05T07:27:04.876Z,98752.50
2019-05-05T07:29:34.486Z,98745.08
2019-05-05T07:32:04.255Z,98751.91
2019-05-05T07:34:46.877Z,98757.83
2019-05-05T07:37:16.294Z,98752.16
2019-05-05T07:39:45.708Z,98752.48
2019-05-05T07:42:15.192Z,98758.19
2019-05-05T07:44:44.641Z,98751.73
2019-05-05T07:47:14.641Z,98749.16
2019-05-05T07:49:44.275Z,98752.20
2019-05-05T07:52:15.154Z,98749.91
2019-05-05T07:54:44.716Z,98753.95
2019-05-05T07:57:14.693Z,98757.73
2019-05-05T07:59:45.036Z,98751.10
2019-05-05T08:02:14.711Z,98754.89
2019-05-05T08:04:44.101Z,98758.50
2019-05-05T08:07:14.706Z,98758.58
2019-05-05T08:09:44.556Z,98759.98
2019-05-05T08:12:14.102Z,98769.69
2019-05-05T08:14:44.443Z,98764.45
2019-05-05T08:17:23.452Z,98754.84
2019-05-05T08:19:56.726Z,98757.48
2019-05-05T08:22:26.140Z,98763.12
2019-05-05T08:25:06.380Z,98765.58
2019-05-05T08:27:46.696Z,98765.71
2019-05-05T08:30:34.516Z,98763.66
2019-05-05T08:33:04.586Z,98760.96
2019-05-05T08:35:34.547Z,98760.74
2019-05-05T08:38:04.713Z,98756.00
2019-05-05T08:40:34.694Z,98754.80
2019-05-05T08:43:04.698Z,98765.47
2019-05-05T08:45:35.031Z,98761.03
2019-05-05T08:48:05.071Z,98760.34
2019-05-05T08:50:35.032Z,98759.70
2019-05-05T08:53:08.015Z,98772.25
2019-05-05T08:55:35.637Z,98772.25
2019-05-05T08:58:05.054Z,98773.48
2019-05-05T09:00:34.452Z,98772.44
2019-05-05T09:03:04.036Z,98771.42
2019-05-05T09:05:34.309Z,98773.25
2019-05-05T09:08:04.667Z,98768.05
2019-05-05T09:10:34.538Z,98763.97
2019-05-05T09:13:04.349Z,98768.91
2019-05-05T09:15:33.928Z,98756.36
2019-05-05T09:18:04.993Z,98754.10
2019-05-05T09:20:34.885Z,98745.08
2019-05-05T09:23:04.765Z,98751.93
2019-05-05T09:25:44.715Z,98753.52
2019-05-05T09:28:15.936Z,98744.16
2019-05-05T09:30:47.034Z,98747.32
2019-05-05T09:33:18.373Z,98744.23
2019-05-05T09:35:47.909Z,98748.44
2019-05-05T09:38:17.870Z,98743.18
2019-05-05T09:40:47.333Z,98753.04
2019-05-05T09:43:16.887Z,98755.35
2019-05-05T09:45:46.287Z,98754.97
2019-05-05T09:48:15.743Z,98763.72
2019-05-05T09:50:45.213Z,98755.59
2019-05-05T09:53:14.763Z,98754.20
2019-05-05T09:55:44.448Z,98756.69
2019-05-05T09:58:13.964Z,98748.06
2019-05-05T10:00:45.255Z,98745.56
2019-05-05T10:03:14.910Z,98739.31
2019-05-05T10:05:45.243Z,98746.09
2019-05-05T10:08:14.734Z,98746.62
2019-05-05T10:10:44.529Z,98747.44
2019-05-05T10:13:14.975Z,98753.13
2019-05-05T10:15:44.632Z,98759.27
2019-05-05T10:18:14.330Z,98758.87
2019-05-05T10:20:43.769Z,98757.63
2019-05-05T10:23:14.247Z,98753.26
2019-05-05T10:25:47.929Z,98749.13
2019-05-05T10:28:17.413Z,98739.51
2019-05-05T10:30:47.857Z,98749.13
2019-05-05T10:33:17.343Z,98740.45
2019-05-05T10:35:46.757Z,98752.53
2019-05-05T10:38:16.160Z,98755.14
2019-05-05T10:40:48.222Z,98759.62
2019-05-05T10:43:16.772Z,98762.11
2019-05-05T10:45:46.262Z,98771.23
2019-05-05T10:48:15.657Z,98771.39
2019-05-05T10:50:45.083Z,98780.02
2019-05-05T10:53:14.492Z,98775.89
2019-05-05T10:55:45.053Z,98778.95
2019-05-05T10:58:14.512Z,98777.39
2019-05-05T11:00:48.291Z,98777.05
2019-05-05T11:03:17.963Z,98772.83
2019-05-05T11:05:47.384Z,98779.28
2019-05-05T11:08:16.953Z,98770.39
2019-05-05T11:10:46.392Z,98775.03
2019-05-05T11:13:15.783Z,98780.16
2019-05-05T11:15:45.198Z,98775.11
2019-05-05T11:18:15.189Z,98775.88
2019-05-05T11:20:45.143Z,98784.84
2019-05-05T11:23:15.312Z,98777.17
2019-05-05T11:25:44.964Z,98791.85
2019-05-05T11:28:14.366Z,98782.72
2019-05-05T11:30:46.532Z,98779.37
2019-05-05T11:33:20.624Z,98784.92
2019-05-05T11:35:57.574Z,98782.09
2019-05-05T11:38:26.999Z,98775.23
2019-05-05T11:40:56.417Z,98774.32
2019-05-05T11:43:25.812Z,98756.90
2019-05-05T11:45:55.331Z,98762.81
2019-05-05T11:48:24.732Z,98758.48
2019-05-05T11:50:54.276Z,98755.94
2019-05-05T11:53:25.157Z,98754.70
2019-05-05T11:55:55.254Z,98747.66
2019-05-05T11:58:25.041Z,98749.07
2019-05-05T12:00:54.907Z,98747.02
2019-05-05T12:03:24.597Z,98752.45
2019-05-05T12:05:54.010Z,98756.16
2019-05-05T12:08:23.922Z,98760.28
2019-05-05T12:10:55.054Z,98769.20
2019-05-05T12:13:24.457Z,98763.27
2019-05-05T12:15:58.513Z,98764.23
2019-05-05T12:18:28.149Z,98754.55
2019-05-05T12:20:57.589Z,98751.10
2019-05-05T12:23:27.261Z,98756.39
2019-05-05T12:25:58.562Z,98749.56
2019-05-05T12:28:47.073Z,98757.54
2019-05-05T12:31:18.145Z,98762.20
2019-05-05T12:33:47.559Z,98763.02
2019-05-05T12:36:16.971Z,98770.88
2019-05-05T12:38:46.364Z,98779.09
2019-05-05T12:41:15.785Z,98795.67
2019-05-05T12:43:45.198Z,98789.41
2019-05-05T12:46:31.265Z,98795.11
2019-05-05T12:49:02.384Z,98791.97
2019-05-05T12:51:34.122Z,98797.91
2019-05-05T12:54:04.518Z,98783.59
2019-05-05T12:56:34.231Z,98786.71
2019-05-05T12:59:05.446Z,98787.06
2019-05-05T13:01:36.520Z,98774.30
2019-05-05T13:04:05.918Z,98769.27
2019-05-05T13:06:35.335Z,98766.86
2019-05-05T13:09:07.219Z,98769.88
2019-05-05T13:11:36.810Z,98769.33
2019-05-05T13:14:06.558Z,98768.47
2019-05-05T13:16:35.990Z,98767.52
2019-05-05T13:19:07.043Z,98764.59
2019-05-05T13:21:54.496Z,98766.22
2019-05-05T13:24:28.226Z,98761.66
2019-05-05T13:27:01.777Z,98756.59
2019-05-05T13:29:31.174Z,98753.05
2019-05-05T13:32:00.603Z,98753.80
2019-05-05T13:34:30.000Z,98746.77
2019-05-05T13:36:59.443Z,98752.42
2019-05-05T13:39:28.858Z,98749.91
2019-05-05T13:41:58.344Z,98740.34
2019-05-05T13:44:29.395Z,98742.75
2019-05-05T13:46:58.828Z,98741.55
2019-05-05T13:49:29.866Z,98743.61
2019-05-05T13:52:00.927Z,98734.80
2019-05-05T13:54:30.325Z,98728.41
2019-05-05T13:56:59.761Z,98722.16
2019-05-05T13:59:29.259Z,98719.48
2019-05-05T14:01:58.691Z,98716.94
2019-05-05T14:04:28.092Z,98725.41
2019-05-05T14:06:57.645Z,98734.13
2019-05-05T14:09:27.061Z,98737.78
2019-05-05T14:11:56.539Z,98736.25
2019-05-05T14:14:25.991Z,98735.98
2019-05-05T14:16:55.422Z,98734.77
2019-05-05T14:19:24.990Z,98733.99
2019-05-05T14:21:54.444Z,98730.03
2019-05-05T14:24:28.497Z,98731.80
2019-05-05T14:26:57.917Z,98732.42
2019-05-05T14:29:43.708Z,98727.40
2019-05-05T14:32:14.841Z,98724.83
2019-05-05T14:34:48.535Z,98719.58
2019-05-05T14:37:33.884Z,98722.41
2019-05-05T14:40:04.808Z,98717.11
2019-05-05T14:42:34.479Z,98717.10
2019-05-05T14:45:05.702Z,98715.12
2019-05-05T14:47:35.425Z,98707.39
2019-05-05T14:50:06.358Z,98706.20
2019-05-05T14:52:35.778Z,98700.15
2019-05-05T14:55:06.611Z,98702.98
2019-05-05T14:57:36.031Z,98693.27
2019-05-05T15:00:10.285Z,98689.41
2019-05-05T15:02:39.980Z,98684.51
2019-05-05T15:05:27.634Z,98680.28
2019-05-05T15:08:15.131Z,98684.78
2019-05-05T15:10:55.113Z,98677.43
2019-05-05T15:13:24.904Z,98674.16
2019-05-05T15:15:54.347Z,98672.83
2019-05-05T15:18:24.273Z,98688.81
2019-05-05T15:20:54.691Z,98691.98
2019-05-05T15:23:24.203Z,98706.69
2019-05-05T15:25:54.103Z,98709.02
2019-05-05T15:28:24.668Z,98716.45
2019-05-05T15:30:54.624Z,98717.34
2019-05-05T15:33:24.468Z,98723.13
2019-05-05T15:35:54.689Z,98719.13
2019-05-05T15:38:24.513Z,98723.30
2019-05-05T15:40:54.703Z,98718.38
2019-05-05T15:43:24.474Z,98712.77
2019-05-05T15:45:54.177Z,98718.47
2019-05-05T15:48:23.660Z,98716.83
2019-05-05T15:50:54.622Z,98715.98
2019-05-05T15:53:24.162Z,98709.11
2019-05-05T15:55:54.020Z,98704.58
2019-05-05T15:58:23.714Z,98705.23
2019-05-05T16:00:53.799Z,98704.07
2019-05-05T16:03:23.352Z,98706.00
2019-05-05T16:05:54.307Z,98712.23
2019-05-05T16:08:23.819Z,98709.28
2019-05-05T16:10:54.676Z,98707.08
2019-05-05T16:13:24.215Z,98707.61
2019-05-05T16:16:01.209Z,98717.28
2019-05-05T16:18:41.327Z,98714.17
2019-05-05T16:21:23.620Z,98714.77
2019-05-05T16:24:04.002Z,98719.52
2019-05-05T16:26:33.401Z,98726.75
2019-05-05T16:29:04.164Z,98724.98
2019-05-05T16:31:34.243Z,98723.16
2019-05-05T16:34:03.999Z,98729.71
2019-05-05T16:36:33.585Z,98723.77
2019-05-05T16:39:03.244Z,98723.00
2019-05-05T16:41:34.073Z,98725.31
2019-05-05T16:44:04.688Z,98728.98
2019-05-05T16:46:34.226Z,98722.27
2019-05-05T16:49:03.697Z,98723.98
2019-05-05T16:51:37.168Z,98732.45
2019-05-05T16:54:08.220Z,98733.34
2019-05-05T16:56:37.617Z,98727.17
2019-05-05T16:59:07.038Z,98724.62
2019-05-05T17:01:36.569Z,98732.66
2019-05-05T17:04:11.245Z,98726.89
2019-05-05T17:06:37.094Z,98735.73
2019-05-05T17:09:06.955Z,98738.03
2019-05-05T17:11:36.419Z,98743.01
2019-05-05T17:14:13.660Z,98747.62
2019-05-05T17:17:03.832Z,98747.67
2019-05-05T17:19:34.983Z,98747.39
2019-05-05T17:22:08.713Z,98753.59
2019-05-05T17:24:38.913Z,98755.30
2019-05-05T17:27:08.427Z,98751.79
2019-05-05T17:29:37.838Z,98753.98
2019-05-05T17:32:07.230Z,98750.03
2019-05-05T17:34:36.723Z,98761.02
2019-05-05T17:37:06.127Z,98759.74
2019-05-05T17:39:37.183Z,98765.06
2019-05-05T17:42:14.213Z,98763.48
2019-05-05T17:44:48.182Z,98766.66
2019-05-05T17:47:19.233Z,98766.79
2019-05-05T17:49:59.273Z,98771.66
2019-05-05T17:52:38.872Z,98770.36
2019-05-05T17:55:21.614Z,98777.48
2019-05-05T17:57:59.727Z,98773.11
2019-05-05T18:00:24.231Z,98779.70
2019-05-05T18:02:53.535Z,98782.36
2019-05-05T18:05:24.849Z,98788.56
2019-05-05T18:07:54.234Z,98786.80
2019-05-05T18:10:25.298Z,98792.87
2019-05-05T18:12:56.338Z,98797.44
2019-05-05T18:15:43.621Z,98796.20
2019-05-05T18:18:13.946Z,98801.08
2019-05-05T18:20:44.925Z,98798.98
2019-05-05T18:23:14.616Z,98811.75
2019-05-05T18:25:44.272Z,98808.64
2019-05-05T18:28:19.686Z,98812.22
2019-05-05T18:30:44.928Z,98827.99
2019-05-05T18:33:14.337Z,98831.49
2019-05-05T18:35:44.360Z,98840.70
2019-05-05T18:38:14.029Z,98835.95
2019-05-05T18:40:44.114Z,98835.09
2019-05-05T18:43:15.155Z,98843.88
2019-05-05T18:45:44.587Z,98835.57
2019-05-05T18:48:14.119Z,98844.75
2019-05-05T18:50:43.603Z,98839.06
2019-05-05T18:53:14.030Z,98839.94
2019-05-05T18:55:44.627Z,98844.33
2019-05-05T18:58:26.999Z,98841.67
2019-05-05T19:00:49.585Z,98843.42
2019-05-05T19:03:20.885Z,98843.88
2019-05-05T19:05:53.551Z,98840.36
2019-05-05T19:08:27.380Z,98846.08
2019-05-05T19:10:56.858Z,98857.44
2019-05-05T19:13:26.237Z,98853.06
2019-05-05T19:15:55.647Z,98857.44
2019-05-05T19:18:25.042Z,98860.48
2019-05-05T19:20:56.091Z,98865.73
2019-05-05T19:23:25.504Z,98861.78
2019-05-05T19:25:56.124Z,98856.08
2019-05-05T19:28:25.586Z,98856.95
2019-05-05T19:30:55.378Z,98867.89
2019-05-05T19:33:24.765Z,98861.77
2019-05-05T19:35:54.157Z,98863.09
2019-05-05T19:38:23.816Z,98866.59
2019-05-05T19:40:55.958Z,98867.00
2019-05-05T19:43:24.585Z,98872.27
2019-05-05T19:45:55.241Z,98868.73
2019-05-05T19:48:24.704Z,98868.27
2019-05-05T19:50:58.860Z,98874.80
2019-05-05T19:53:28.339Z,98874.77
2019-05-05T19:55:57.728Z,98877.36
2019-05-05T19:58:27.163Z,98871.63
2019-05-05T20:00:58.196Z,98874.59
2019-05-05T20:03:27.708Z,98872.39
2019-05-05T20:05:57.266Z,98872.81
2019-05-05T20:08:39.932Z,98874.09
2019-05-05T20:10:57.806Z,98875.80
2019-05-05T20:13:27.932Z,98878.81
2019-05-05T20:15:59.118Z,98872.67
2019-05-05T20:18:28.541Z,98877.02
2019-05-05T20:21:04.072Z,98876.97
2019-05-05T20:23:29.062Z,98880.83
2019-05-05T20:25:58.547Z,98879.88
2019-05-05T20:28:28.037Z,98888.56
2019-05-05T20:30:57.462Z,98888.98
2019-05-05T20:33:44.465Z,98891.91
2019-05-05T20:36:15.492Z,98887.03
2019-05-05T20:38:46.535Z,98888.32
2019-05-05T20:41:17.111Z,98896.53
2019-05-05T20:43:46.591Z,98896.05
2019-05-05T20:46:16.095Z,98894.20
2019-05-05T20:48:45.517Z,98886.72
2019-05-05T20:51:14.904Z,98886.16
2019-05-05T20:53:47.048Z,98883.88
2019-05-05T20:56:15.675Z,98879.05
2019-05-05T20:58:45.095Z,98885.95
2019-05-05T21:01:14.487Z,98881.12
2019-05-05T21:03:43.972Z,98885.41
2019-05-05T21:06:14.010Z,98881.78
2019-05-05T21:08:43.973Z,98878.22
2019-05-05T21:11:14.235Z,98875.05
2019-05-05T21:13:45.058Z,98875.83
2019-05-05T21:16:16.285Z,98874.98
2019-05-05T21:18:45.709Z,98871.94
2019-05-05T21:21:16.739Z,98869.36
2019-05-05T21:23:47.799Z,98871.52
2019-05-05T21:26:24.629Z,98874.09
2019-05-05T21:28:54.121Z,98874.06
2019-05-05T21:31:24.038Z,98866.97
2019-05-05T21:33:54.864Z,98866.89
2019-05-05T21:36:24.605Z,98874.24
2019-05-05T21:38:54.831Z,98871.52
2019-05-05T21:41:24.639Z,98866.22
2019-05-05T21:43:54.314Z,98871.80
2019-05-05T21:46:24.135Z,98873.02
2019-05-05T21:48:54.380Z,98873.41
2019-05-05T21:51:31.370Z,98873.79
2019-05-05T21:54:18.597Z,98875.47
2019-05-05T21:56:49.643Z,98874.59
2019-05-05T21:59:19.056Z,98880.63
2019-05-05T22:01:49.949Z,98879.73
2019-05-05T22:04:19.703Z,98882.73
2019-05-05T22:06:49.096Z,98881.88
2019-05-05T22:09:18.497Z,98880.50
2019-05-05T22:11:47.931Z,98883.52
2019-05-05T22:14:17.374Z,98881.34
2019-05-05T22:16:46.754Z,98877.84
2019-05-05T22:19:17.660Z,98875.28
2019-05-05T22:21:48.728Z,98870.98
2019-05-05T22:24:22.725Z,98874.09
2019-05-05T22:26:54.146Z,98874.01
2019-05-05T22:29:24.971Z,98879.70
2019-05-05T22:31:54.467Z,98876.66
2019-05-05T22:34:24.197Z,98880.24
2019-05-05T22:36:53.826Z,98878.97
2019-05-05T22:39:24.421Z,98886.31
2019-05-05T22:41:54.423Z,98887.95
2019-05-05T22:44:24.426Z,98878.30
2019-05-05T22:46:53.955Z,98891.23
2019-05-05T22:49:24.192Z,98891.19
2019-05-05T22:51:54.156Z,98886.81
2019-05-05T22:54:24.069Z,98889.00
2019-05-05T22:56:53.978Z,98885.46
2019-05-05T22:59:26.053Z,98884.49
2019-05-05T23:01:54.605Z,98887.90
2019-05-05T23:04:25.650Z,98889.25
2019-05-05T23:06:56.764Z,98894.89
2019-05-05T23:09:29.255Z,98893.13
2019-05-05T23:11:58.653Z,98890.14
2019-05-05T23:14:28.099Z,98891.95
2019-05-05T23:17:11.199Z,98889.85
2019-05-05T23:19:45.219Z,98892.20
2019-05-05T23:22:24.072Z,98895.83
2019-05-05T23:24:54.867Z,98896.75
2019-05-05T23:27:44.051Z,98895.48
2019-05-05T23:30:15.684Z,98894.18
2019-05-05T23:32:45.676Z,98897.59
2019-05-05T23:35:15.264Z,98899.28
2019-05-05T23:37:45.716Z,98897.52
2019-05-05T23:40:24.718Z,98896.20
2019-05-05T23:42:54.537Z,98901.80
2019-05-05T23:45:24.970Z,98901.30
2019-05-05T23:47:54.868Z,98902.61
2019-05-05T23:50:24.566Z,98899.54
2019-05-05T23:52:54.662Z,98901.72
2019-05-05T23:55:24.329Z,98901.67
2019-05-05T23:57:54.676Z,98902.48
